sensor_id;sensor_type;location;lat;lon;timestamp;pressure;altitude;pressure_sealevel;temperature;humidity
62952;BME280;52163;52.212;-1.002;2023-03-20T00:01:16;100642.16;;;7.60;79.51
62952;BME280;52163;52.212;-1.002;2023-03-20T00:03:42;100637.85;;;7.58;79.29
62952;BME280;52163;52.212;-1.002;2023-03-20T00:06:15;100633.80;;;7.54;79.49
62952;BME280;52163;52.212;-1.002;2023-03-20T00:08:45;100630.11;;;7.51;79.21
62952;BME280;52163;52.212;-1.002;2023-03-20T00:13:58;100618.34;;;7.43;79.56
62952;BME280;52163;52.212;-1.002;2023-03-20T00:16:28;100614.59;;;7.40;79.59
62952;BME280;52163;52.212;-1.002;2023-03-20T00:18:55;100615.83;;;7.36;79.67
62952;BME280;52163;52.212;-1.002;2023-03-20T00:21:20;100607.59;;;7.32;79.51
62952;BME280;52163;52.212;-1.002;2023-03-20T00:23:46;100609.73;;;7.31;79.78
62952;BME280;52163;52.212;-1.002;2023-03-20T00:26:14;100617.08;;;7.32;80.18
62952;BME280;52163;52.212;-1.002;2023-03-20T00:28:44;100618.55;;;7.34;80.05
62952;BME280;52163;52.212;-1.002;2023-03-20T00:33:45;100617.63;;;7.39;79.63
62952;BME280;52163;52.212;-1.002;2023-03-20T00:36:10;100618.14;;;7.39;79.56
62952;BME280;52163;52.212;-1.002;2023-03-20T00:38:35;100619.61;;;7.38;79.35
62952;BME280;52163;52.212;-1.002;2023-03-20T00:41:01;100622.81;;;7.37;79.49
62952;BME280;52163;52.212;-1.002;2023-03-20T00:43:27;100617.09;;;7.35;79.48
62952;BME280;52163;52.212;-1.002;2023-03-20T00:45:53;100612.65;;;7.33;79.63
62952;BME280;52163;52.212;-1.002;2023-03-20T00:48:18;100615.67;;;7.32;79.81
62952;BME280;52163;52.212;-1.002;2023-03-20T00:50:44;100615.39;;;7.30;79.64
62952;BME280;52163;52.212;-1.002;2023-03-20T00:53:10;100609.72;;;7.31;79.70
62952;BME280;52163;52.212;-1.002;2023-03-20T00:55:36;100611.55;;;7.34;80.02
62952;BME280;52163;52.212;-1.002;2023-03-20T00:58:04;100610.94;;;7.35;80.10
62952;BME280;52163;52.212;-1.002;2023-03-20T01:00:42;100614.79;;;7.39;80.11
62952;BME280;52163;52.212;-1.002;2023-03-20T01:03:18;100610.84;;;7.41;80.18
62952;BME280;52163;52.212;-1.002;2023-03-20T01:05:44;100609.17;;;7.43;79.83
62952;BME280;52163;52.212;-1.002;2023-03-20T01:08:16;100604.27;;;7.43;79.85
62952;BME280;52163;52.212;-1.002;2023-03-20T01:10:43;100603.11;;;7.41;79.67
62952;BME280;52163;52.212;-1.002;2023-03-20T01:13:35;100601.98;;;7.39;79.59
62952;BME280;52163;52.212;-1.002;2023-03-20T01:16:00;100600.91;;;7.35;79.93
62952;BME280;52163;52.212;-1.002;2023-03-20T01:18:25;100601.89;;;7.33;79.75
62952;BME280;52163;52.212;-1.002;2023-03-20T01:20:51;100597.08;;;7.31;79.77
62952;BME280;52163;52.212;-1.002;2023-03-20T01:23:18;100597.99;;;7.30;80.18
62952;BME280;52163;52.212;-1.002;2023-03-20T01:25:44;100595.88;;;7.30;80.20
62952;BME280;52163;52.212;-1.002;2023-03-20T01:28:21;100591.66;;;7.30;79.99
62952;BME280;52163;52.212;-1.002;2023-03-20T01:30:47;100589.34;;;7.31;80.03
62952;BME280;52163;52.212;-1.002;2023-03-20T01:33:20;100588.08;;;7.32;80.18
62952;BME280;52163;52.212;-1.002;2023-03-20T01:35:48;100586.19;;;7.31;79.98
62952;BME280;52163;52.212;-1.002;2023-03-20T01:38:22;100580.64;;;7.29;79.74
62952;BME280;52163;52.212;-1.002;2023-03-20T01:40:53;100575.47;;;7.27;79.80
62952;BME280;52163;52.212;-1.002;2023-03-20T01:43:23;100575.05;;;7.24;79.96
62952;BME280;52163;52.212;-1.002;2023-03-20T01:51:29;100566.60;;;7.17;79.46
62952;BME280;52163;52.212;-1.002;2023-03-20T01:54:10;100563.50;;;7.16;79.25
62952;BME280;52163;52.212;-1.002;2023-03-20T01:56:43;100554.58;;;7.15;79.30
62952;BME280;52163;52.212;-1.002;2023-03-20T01:59:15;100555.92;;;7.16;79.20
62952;BME280;52163;52.212;-1.002;2023-03-20T02:01:43;100557.22;;;7.18;79.28
62952;BME280;52163;52.212;-1.002;2023-03-20T02:04:10;100552.24;;;7.20;79.14
62952;BME280;52163;52.212;-1.002;2023-03-20T02:06:36;100544.66;;;7.20;79.19
62952;BME280;52163;52.212;-1.002;2023-03-20T02:09:03;100542.20;;;7.20;79.10
62952;BME280;52163;52.212;-1.002;2023-03-20T02:11:29;100531.29;;;7.21;79.14
62952;BME280;52163;52.212;-1.002;2023-03-20T02:13:57;100525.36;;;7.20;79.13
62952;BME280;52163;52.212;-1.002;2023-03-20T02:16:24;100524.88;;;7.19;79.28
62952;BME280;52163;52.212;-1.002;2023-03-20T02:18:51;100519.47;;;7.18;79.41
62952;BME280;52163;52.212;-1.002;2023-03-20T02:26:50;100513.94;;;7.12;79.70
62952;BME280;52163;52.212;-1.002;2023-03-20T02:32:31;100523.46;;;7.15;80.27
62952;BME280;52163;52.212;-1.002;2023-03-20T02:43:50;100489.14;;;7.13;80.71
62952;BME280;52163;52.212;-1.002;2023-03-20T02:46:41;100488.54;;;7.10;80.98
62952;BME280;52163;52.212;-1.002;2023-03-20T02:49:32;100482.44;;;7.10;81.41
62952;BME280;52163;52.212;-1.002;2023-03-20T02:55:19;100477.95;;;7.08;81.48
62952;BME280;52163;52.212;-1.002;2023-03-20T02:58:15;100475.73;;;7.11;81.78
62952;BME280;52163;52.212;-1.002;2023-03-20T03:03:36;100485.48;;;7.16;82.11
62952;BME280;52163;52.212;-1.002;2023-03-20T03:06:28;100484.53;;;7.17;82.47
62952;BME280;52163;52.212;-1.002;2023-03-20T03:09:24;100489.81;;;7.17;82.84
62952;BME280;52163;52.212;-1.002;2023-03-20T03:11:56;100491.55;;;7.18;83.55
62952;BME280;52163;52.212;-1.002;2023-03-20T03:14:47;100491.23;;;7.17;83.96
62952;BME280;52163;52.212;-1.002;2023-03-20T03:17:16;100491.95;;;7.17;84.39
62952;BME280;52163;52.212;-1.002;2023-03-20T03:19:46;100489.56;;;7.19;84.62
62952;BME280;52163;52.212;-1.002;2023-03-20T03:22:16;100492.73;;;7.22;84.95
62952;BME280;52163;52.212;-1.002;2023-03-20T03:24:48;100488.59;;;7.25;85.03
62952;BME280;52163;52.212;-1.002;2023-03-20T03:29:46;100484.18;;;7.33;85.36
62952;BME280;52163;52.212;-1.002;2023-03-20T03:32:32;100480.52;;;7.36;85.42
62952;BME280;52163;52.212;-1.002;2023-03-20T03:34:59;100474.30;;;7.37;85.43
62952;BME280;52163;52.212;-1.002;2023-03-20T03:40:36;100466.34;;;7.38;85.63
62952;BME280;52163;52.212;-1.002;2023-03-20T03:43:10;100463.75;;;7.37;85.82
62952;BME280;52163;52.212;-1.002;2023-03-20T03:45:51;100458.27;;;7.38;85.88
62952;BME280;52163;52.212;-1.002;2023-03-20T03:48:27;100451.88;;;7.39;86.14
62952;BME280;52163;52.212;-1.002;2023-03-20T03:51:02;100452.30;;;7.42;86.14
62952;BME280;52163;52.212;-1.002;2023-03-20T03:53:34;100451.90;;;7.43;86.20
62952;BME280;52163;52.212;-1.002;2023-03-20T03:56:05;100455.35;;;7.44;86.28
62952;BME280;52163;52.212;-1.002;2023-03-20T03:58:40;100450.73;;;7.45;86.17
62952;BME280;52163;52.212;-1.002;2023-03-20T04:01:09;100449.35;;;7.44;86.22
62952;BME280;52163;52.212;-1.002;2023-03-20T04:03:42;100446.66;;;7.42;86.20
62952;BME280;52163;52.212;-1.002;2023-03-20T04:06:10;100443.92;;;7.40;86.08
62952;BME280;52163;52.212;-1.002;2023-03-20T04:08:39;100443.61;;;7.39;86.36
62952;BME280;52163;52.212;-1.002;2023-03-20T04:11:07;100444.27;;;7.40;86.56
62952;BME280;52163;52.212;-1.002;2023-03-20T04:13:33;100439.80;;;7.42;86.64
62952;BME280;52163;52.212;-1.002;2023-03-20T04:15:58;100441.13;;;7.44;86.76
62952;BME280;52163;52.212;-1.002;2023-03-20T04:18:23;100439.14;;;7.45;87.09
62952;BME280;52163;52.212;-1.002;2023-03-20T04:20:49;100435.36;;;7.47;87.01
62952;BME280;52163;52.212;-1.002;2023-03-20T04:23:16;100432.52;;;7.48;87.14
62952;BME280;52163;52.212;-1.002;2023-03-20T04:25:41;100429.23;;;7.46;87.19
62952;BME280;52163;52.212;-1.002;2023-03-20T04:28:07;100427.89;;;7.45;87.58
62952;BME280;52163;52.212;-1.002;2023-03-20T04:30:32;100434.16;;;7.46;87.72
62952;BME280;52163;52.212;-1.002;2023-03-20T04:32:58;100435.16;;;7.47;87.87
62952;BME280;52163;52.212;-1.002;2023-03-20T04:35:23;100436.23;;;7.51;88.35
62952;BME280;52163;52.212;-1.002;2023-03-20T04:37:48;100436.60;;;7.54;88.52
62952;BME280;52163;52.212;-1.002;2023-03-20T04:40:14;100436.32;;;7.56;88.62
62952;BME280;52163;52.212;-1.002;2023-03-20T04:42:40;100434.67;;;7.58;88.55
62952;BME280;52163;52.212;-1.002;2023-03-20T04:45:06;100431.09;;;7.59;88.80
62952;BME280;52163;52.212;-1.002;2023-03-20T04:47:32;100424.42;;;7.58;88.72
62952;BME280;52163;52.212;-1.002;2023-03-20T04:49:57;100420.36;;;7.59;88.82
62952;BME280;52163;52.212;-1.002;2023-03-20T04:52:23;100415.47;;;7.58;89.08
62952;BME280;52163;52.212;-1.002;2023-03-20T04:54:48;100416.35;;;7.58;89.30
62952;BME280;52163;52.212;-1.002;2023-03-20T04:57:14;100419.19;;;7.58;89.47
62952;BME280;52163;52.212;-1.002;2023-03-20T04:59:40;100425.24;;;7.60;89.71
62952;BME280;52163;52.212;-1.002;2023-03-20T05:02:05;100422.23;;;7.61;89.66
62952;BME280;52163;52.212;-1.002;2023-03-20T05:04:31;100418.89;;;7.61;89.95
62952;BME280;52163;52.212;-1.002;2023-03-20T05:06:56;100412.40;;;7.60;90.10
62952;BME280;52163;52.212;-1.002;2023-03-20T05:09:22;100415.05;;;7.60;90.21
62952;BME280;52163;52.212;-1.002;2023-03-20T05:11:47;100416.38;;;7.58;90.36
62952;BME280;52163;52.212;-1.002;2023-03-20T05:14:12;100415.36;;;7.57;90.63
62952;BME280;52163;52.212;-1.002;2023-03-20T05:16:38;100411.83;;;7.58;90.78
62952;BME280;52163;52.212;-1.002;2023-03-20T05:19:04;100410.33;;;7.60;91.01
62952;BME280;52163;52.212;-1.002;2023-03-20T05:21:30;100404.86;;;7.63;91.45
62952;BME280;52163;52.212;-1.002;2023-03-20T05:23:55;100405.79;;;7.66;91.71
62952;BME280;52163;52.212;-1.002;2023-03-20T05:26:20;100406.70;;;7.68;91.90
62952;BME280;52163;52.212;-1.002;2023-03-20T05:28:46;100410.01;;;7.69;92.12
62952;BME280;52163;52.212;-1.002;2023-03-20T05:31:11;100405.26;;;7.69;92.29
62952;BME280;52163;52.212;-1.002;2023-03-20T05:33:37;100404.02;;;7.70;92.58
62952;BME280;52163;52.212;-1.002;2023-03-20T05:36:03;100409.58;;;7.71;92.92
62952;BME280;52163;52.212;-1.002;2023-03-20T05:38:30;100407.66;;;7.74;93.38
62952;BME280;52163;52.212;-1.002;2023-03-20T05:40:59;100410.84;;;7.78;93.51
62952;BME280;52163;52.212;-1.002;2023-03-20T05:43:25;100408.20;;;7.81;93.63
62952;BME280;52163;52.212;-1.002;2023-03-20T05:45:51;100403.35;;;7.83;93.89
62952;BME280;52163;52.212;-1.002;2023-03-20T05:48:17;100401.54;;;7.84;94.06
62952;BME280;52163;52.212;-1.002;2023-03-20T05:50:42;100402.88;;;7.85;94.16
62952;BME280;52163;52.212;-1.002;2023-03-20T05:53:07;100397.95;;;7.85;94.24
62952;BME280;52163;52.212;-1.002;2023-03-20T05:55:36;100401.08;;;7.86;94.36
62952;BME280;52163;52.212;-1.002;2023-03-20T05:58:01;100409.48;;;7.87;94.51
62952;BME280;52163;52.212;-1.002;2023-03-20T06:00:27;100413.55;;;7.90;94.87
62952;BME280;52163;52.212;-1.002;2023-03-20T06:02:52;100413.11;;;7.92;95.14
62952;BME280;52163;52.212;-1.002;2023-03-20T06:05:17;100409.47;;;7.94;95.34
62952;BME280;52163;52.212;-1.002;2023-03-20T06:07:43;100411.84;;;7.96;95.34
62952;BME280;52163;52.212;-1.002;2023-03-20T06:10:09;100407.48;;;7.98;95.58
62952;BME280;52163;52.212;-1.002;2023-03-20T06:12:35;100412.43;;;8.02;95.93
62952;BME280;52163;52.212;-1.002;2023-03-20T06:15:00;100409.53;;;8.03;95.97
62952;BME280;52163;52.212;-1.002;2023-03-20T06:17:26;100414.95;;;8.04;96.02
62952;BME280;52163;52.212;-1.002;2023-03-20T06:19:51;100417.67;;;8.06;96.56
62952;BME280;52163;52.212;-1.002;2023-03-20T06:22:17;100415.63;;;8.08;96.71
62952;BME280;52163;52.212;-1.002;2023-03-20T06:24:42;100415.82;;;8.11;96.94
62952;BME280;52163;52.212;-1.002;2023-03-20T06:27:08;100420.52;;;8.16;97.58
62952;BME280;52163;52.212;-1.002;2023-03-20T06:29:33;100419.95;;;8.20;97.50
62952;BME280;52163;52.212;-1.002;2023-03-20T06:31:59;100424.27;;;8.25;97.77
62952;BME280;52163;52.212;-1.002;2023-03-20T06:34:25;100426.73;;;8.28;98.06
62952;BME280;52163;52.212;-1.002;2023-03-20T06:36:50;100432.36;;;8.32;98.07
62952;BME280;52163;52.212;-1.002;2023-03-20T06:39:16;100431.67;;;8.35;98.14
62952;BME280;52163;52.212;-1.002;2023-03-20T06:41:41;100437.48;;;8.38;98.44
62952;BME280;52163;52.212;-1.002;2023-03-20T06:44:07;100435.98;;;8.43;98.79
62952;BME280;52163;52.212;-1.002;2023-03-20T06:46:32;100440.38;;;8.50;99.30
62952;BME280;52163;52.212;-1.002;2023-03-20T06:48:58;100439.98;;;8.59;99.48
62952;BME280;52163;52.212;-1.002;2023-03-20T06:51:23;100435.73;;;8.65;99.55
62952;BME280;52163;52.212;-1.002;2023-03-20T06:53:49;100433.17;;;8.71;99.60
62952;BME280;52163;52.212;-1.002;2023-03-20T06:56:14;100429.42;;;8.75;99.63
62952;BME280;52163;52.212;-1.002;2023-03-20T06:58:41;100432.42;;;8.78;99.39
62952;BME280;52163;52.212;-1.002;2023-03-20T07:01:14;100426.67;;;8.83;99.88
62952;BME280;52163;52.212;-1.002;2023-03-20T07:03:41;100430.19;;;8.90;99.90
62952;BME280;52163;52.212;-1.002;2023-03-20T07:06:07;100426.58;;;8.95;99.84
62952;BME280;52163;52.212;-1.002;2023-03-20T07:08:33;100423.63;;;9.01;99.87
62952;BME280;52163;52.212;-1.002;2023-03-20T07:11:01;100420.41;;;9.08;99.77
62952;BME280;52163;52.212;-1.002;2023-03-20T07:13:29;100421.00;;;9.13;99.88
62952;BME280;52163;52.212;-1.002;2023-03-20T07:15:54;100419.61;;;9.16;100.00
62952;BME280;52163;52.212;-1.002;2023-03-20T07:18:20;100421.36;;;9.20;99.89
62952;BME280;52163;52.212;-1.002;2023-03-20T07:20:45;100422.88;;;9.24;100.00
62952;BME280;52163;52.212;-1.002;2023-03-20T07:23:11;100429.69;;;9.28;100.00
62952;BME280;52163;52.212;-1.002;2023-03-20T07:25:37;100437.08;;;9.35;100.00
62952;BME280;52163;52.212;-1.002;2023-03-20T07:28:03;100433.59;;;9.40;100.00
62952;BME280;52163;52.212;-1.002;2023-03-20T07:30:31;100432.44;;;9.45;100.00
62952;BME280;52163;52.212;-1.002;2023-03-20T07:32:56;100424.23;;;9.50;100.00
62952;BME280;52163;52.212;-1.002;2023-03-20T07:35:22;100418.08;;;9.56;99.92
62952;BME280;52163;52.212;-1.002;2023-03-20T07:37:48;100416.14;;;9.62;99.99
62952;BME280;52163;52.212;-1.002;2023-03-20T07:40:13;100423.63;;;9.67;99.79
62952;BME280;52163;52.212;-1.002;2023-03-20T07:42:39;100424.75;;;9.69;99.81
62952;BME280;52163;52.212;-1.002;2023-03-20T07:45:05;100420.88;;;9.72;99.78
62952;BME280;52163;52.212;-1.002;2023-03-20T07:47:31;100422.98;;;9.78;100.00
62952;BME280;52163;52.212;-1.002;2023-03-20T07:49:57;100420.52;;;9.87;100.00
62952;BME280;52163;52.212;-1.002;2023-03-20T07:52:22;100416.25;;;9.97;100.00
62952;BME280;52163;52.212;-1.002;2023-03-20T07:54:48;100418.09;;;10.07;99.97
62952;BME280;52163;52.212;-1.002;2023-03-20T07:57:13;100421.48;;;10.16;99.57
62952;BME280;52163;52.212;-1.002;2023-03-20T07:59:38;100423.83;;;10.21;99.18
62952;BME280;52163;52.212;-1.002;2023-03-20T08:02:04;100432.46;;;10.27;99.04
62952;BME280;52163;52.212;-1.002;2023-03-20T08:04:29;100431.42;;;10.32;98.48
62952;BME280;52163;52.212;-1.002;2023-03-20T08:06:55;100433.16;;;10.39;98.46
62952;BME280;52163;52.212;-1.002;2023-03-20T08:09:20;100435.03;;;10.47;98.36
62952;BME280;52163;52.212;-1.002;2023-03-20T08:11:46;100430.92;;;10.56;98.37
62952;BME280;52163;52.212;-1.002;2023-03-20T08:14:12;100432.73;;;10.67;98.31
62952;BME280;52163;52.212;-1.002;2023-03-20T08:16:37;100430.79;;;10.76;97.95
62952;BME280;52163;52.212;-1.002;2023-03-20T08:19:03;100435.73;;;10.84;97.94
62952;BME280;52163;52.212;-1.002;2023-03-20T08:21:31;100436.23;;;10.90;97.61
62952;BME280;52163;52.212;-1.002;2023-03-20T08:23:57;100431.80;;;10.96;96.97
62952;BME280;52163;52.212;-1.002;2023-03-20T08:26:23;100432.28;;;11.05;96.74
62952;BME280;52163;52.212;-1.002;2023-03-20T08:28:49;100433.60;;;11.18;96.42
62952;BME280;52163;52.212;-1.002;2023-03-20T08:31:15;100430.16;;;11.33;96.32
62952;BME280;52163;52.212;-1.002;2023-03-20T08:33:43;100427.66;;;11.47;95.68
62952;BME280;52163;52.212;-1.002;2023-03-20T08:36:08;100427.40;;;11.62;95.44
62952;BME280;52163;52.212;-1.002;2023-03-20T08:38:34;100427.13;;;11.74;94.93
62952;BME280;52163;52.212;-1.002;2023-03-20T08:40:59;100428.86;;;11.86;94.55
62952;BME280;52163;52.212;-1.002;2023-03-20T08:43:25;100429.32;;;11.92;93.76
62952;BME280;52163;52.212;-1.002;2023-03-20T08:45:51;100425.08;;;11.95;93.45
62952;BME280;52163;52.212;-1.002;2023-03-20T08:48:17;100430.19;;;11.98;93.41
62952;BME280;52163;52.212;-1.002;2023-03-20T08:50:42;100427.84;;;12.01;93.20
62952;BME280;52163;52.212;-1.002;2023-03-20T08:53:09;100429.09;;;12.04;93.16
62952;BME280;52163;52.212;-1.002;2023-03-20T08:55:34;100430.02;;;12.08;92.83
62952;BME280;52163;52.212;-1.002;2023-03-20T08:57:59;100430.52;;;12.14;92.70
62952;BME280;52163;52.212;-1.002;2023-03-20T09:00:25;100427.83;;;12.20;92.22
62952;BME280;52163;52.212;-1.002;2023-03-20T09:02:51;100425.64;;;12.26;91.98
62952;BME280;52163;52.212;-1.002;2023-03-20T09:05:17;100429.59;;;12.33;91.63
62952;BME280;52163;52.212;-1.002;2023-03-20T09:07:43;100432.02;;;12.37;91.30
62952;BME280;52163;52.212;-1.002;2023-03-20T09:10:09;100432.20;;;12.39;91.25
62952;BME280;52163;52.212;-1.002;2023-03-20T09:12:36;100431.70;;;12.44;91.49
62952;BME280;52163;52.212;-1.002;2023-03-20T09:15:03;100434.50;;;12.47;91.12
62952;BME280;52163;52.212;-1.002;2023-03-20T09:17:29;100439.27;;;12.47;90.66
62952;BME280;52163;52.212;-1.002;2023-03-20T09:19:56;100439.37;;;12.51;90.76
62952;BME280;52163;52.212;-1.002;2023-03-20T09:22:21;100441.38;;;12.55;90.27
62952;BME280;52163;52.212;-1.002;2023-03-20T09:24:47;100442.89;;;12.59;90.17
62952;BME280;52163;52.212;-1.002;2023-03-20T09:27:12;100443.98;;;12.63;90.07
62952;BME280;52163;52.212;-1.002;2023-03-20T09:29:39;100445.34;;;12.72;89.94
62952;BME280;52163;52.212;-1.002;2023-03-20T09:32:05;100445.62;;;12.83;89.92
62952;BME280;52163;52.212;-1.002;2023-03-20T09:34:30;100442.88;;;12.99;89.53
62952;BME280;52163;52.212;-1.002;2023-03-20T09:36:56;100438.35;;;13.16;89.42
62952;BME280;52163;52.212;-1.002;2023-03-20T09:39:21;100442.02;;;13.29;88.95
62952;BME280;52163;52.212;-1.002;2023-03-20T09:41:48;100438.66;;;13.41;88.48
62952;BME280;52163;52.212;-1.002;2023-03-20T09:49:39;100455.44;;;13.34;87.19
62952;BME280;52163;52.212;-1.002;2023-03-20T09:54:45;100454.08;;;13.36;87.61
62952;BME280;52163;52.212;-1.002;2023-03-20T09:59:56;100449.45;;;13.87;86.73
62952;BME280;52163;52.212;-1.002;2023-03-20T10:02:59;100454.46;;;14.11;85.95
62952;BME280;52163;52.212;-1.002;2023-03-20T10:05:31;100454.70;;;14.17;84.97
62952;BME280;52163;52.212;-1.002;2023-03-20T10:08:00;100458.40;;;14.13;84.48
62952;BME280;52163;52.212;-1.002;2023-03-20T10:15:51;100459.34;;;14.31;84.45
62952;BME280;52163;52.212;-1.002;2023-03-20T10:18:26;100459.85;;;14.31;83.82
62952;BME280;52163;52.212;-1.002;2023-03-20T10:21:00;100461.39;;;14.30;83.30
62952;BME280;52163;52.212;-1.002;2023-03-20T10:23:43;100460.16;;;14.32;83.57
62952;BME280;52163;52.212;-1.002;2023-03-20T10:26:14;100460.46;;;14.39;83.45
62952;BME280;52163;52.212;-1.002;2023-03-20T10:28:59;100456.02;;;14.44;82.86
62952;BME280;52163;52.212;-1.002;2023-03-20T10:34:15;100449.16;;;14.82;82.78
62952;BME280;52163;52.212;-1.002;2023-03-20T10:37:00;100446.52;;;15.05;82.00
62952;BME280;52163;52.212;-1.002;2023-03-20T10:42:18;100450.67;;;15.24;80.36
62952;BME280;52163;52.212;-1.002;2023-03-20T10:44:58;100451.02;;;15.27;80.19
62952;BME280;52163;52.212;-1.002;2023-03-20T10:47:27;100449.31;;;15.25;79.91
62952;BME280;52163;52.212;-1.002;2023-03-20T10:50:04;100449.34;;;15.18;79.33
62952;BME280;52163;52.212;-1.002;2023-03-20T10:52:34;100450.00;;;15.15;79.56
62952;BME280;52163;52.212;-1.002;2023-03-20T10:55:20;100444.52;;;15.19;79.71
62952;BME280;52163;52.212;-1.002;2023-03-20T10:57:53;100444.12;;;15.19;79.61
62952;BME280;52163;52.212;-1.002;2023-03-20T11:00:23;100439.87;;;15.14;79.53
62952;BME280;52163;52.212;-1.002;2023-03-20T11:02:50;100444.17;;;15.07;79.20
62952;BME280;52163;52.212;-1.002;2023-03-20T11:05:30;100442.80;;;14.98;79.30
62952;BME280;52163;52.212;-1.002;2023-03-20T11:08:13;100441.98;;;14.90;79.43
62952;BME280;52163;52.212;-1.002;2023-03-20T11:10:40;100436.26;;;14.99;79.81
62952;BME280;52163;52.212;-1.002;2023-03-20T11:13:36;100426.48;;;15.13;79.99
62952;BME280;52163;52.212;-1.002;2023-03-20T11:18:33;100421.53;;;15.41;79.58
62952;BME280;52163;52.212;-1.002;2023-03-20T11:21:00;100416.81;;;15.70;78.69
62952;BME280;52163;52.212;-1.002;2023-03-20T11:23:28;100409.13;;;15.83;78.25
62952;BME280;52163;52.212;-1.002;2023-03-20T11:26:02;100407.41;;;16.02;77.95
62952;BME280;52163;52.212;-1.002;2023-03-20T11:31:13;100408.52;;;16.33;77.14
62952;BME280;52163;52.212;-1.002;2023-03-20T11:33:45;100405.91;;;16.61;76.56
62952;BME280;52163;52.212;-1.002;2023-03-20T11:36:26;100400.15;;;16.85;75.64
62952;BME280;52163;52.212;-1.002;2023-03-20T11:39:00;100404.00;;;16.75;74.93
62952;BME280;52163;52.212;-1.002;2023-03-20T11:41:29;100404.17;;;16.63;74.69
62952;BME280;52163;52.212;-1.002;2023-03-20T11:43:54;100398.95;;;16.53;74.82
62952;BME280;52163;52.212;-1.002;2023-03-20T11:46:21;100396.58;;;16.56;75.04
62952;BME280;52163;52.212;-1.002;2023-03-20T11:49:05;100403.18;;;16.56;74.68
62952;BME280;52163;52.212;-1.002;2023-03-20T11:51:31;100404.41;;;16.44;74.63
62952;BME280;52163;52.212;-1.002;2023-03-20T11:54:04;100407.86;;;16.32;74.57
62952;BME280;52163;52.212;-1.002;2023-03-20T11:56:33;100404.17;;;16.36;74.67
62952;BME280;52163;52.212;-1.002;2023-03-20T11:59:13;100403.14;;;16.38;74.60
62952;BME280;52163;52.212;-1.002;2023-03-20T12:01:48;100399.92;;;16.48;74.69
62952;BME280;52163;52.212;-1.002;2023-03-20T12:04:34;100396.46;;;16.63;74.78
62952;BME280;52163;52.212;-1.002;2023-03-20T12:10:05;100391.79;;;16.70;74.21
62952;BME280;52163;52.212;-1.002;2023-03-20T12:12:49;100398.80;;;16.61;73.73
62952;BME280;52163;52.212;-1.002;2023-03-20T12:15:26;100399.71;;;16.45;73.82
62952;BME280;52163;52.212;-1.002;2023-03-20T12:20:46;100397.14;;;16.18;74.16
62952;BME280;52163;52.212;-1.002;2023-03-20T12:23:39;100397.65;;;16.25;74.48
62952;BME280;52163;52.212;-1.002;2023-03-20T12:26:17;100399.24;;;16.35;74.51
62952;BME280;52163;52.212;-1.002;2023-03-20T12:29:19;100389.35;;;16.38;74.50
62952;BME280;52163;52.212;-1.002;2023-03-20T12:31:45;100393.77;;;16.39;74.40
62952;BME280;52163;52.212;-1.002;2023-03-20T12:36:46;100397.02;;;16.45;74.33
62952;BME280;52163;52.212;-1.002;2023-03-20T12:39:15;100400.66;;;16.50;74.03
62952;BME280;52163;52.212;-1.002;2023-03-20T12:44:38;100390.26;;;16.54;73.51
62952;BME280;52163;52.212;-1.002;2023-03-20T12:47:15;100385.47;;;16.52;73.19
62952;BME280;52163;52.212;-1.002;2023-03-20T12:57:29;100377.95;;;16.24;74.14
62952;BME280;52163;52.212;-1.002;2023-03-20T13:03:05;100372.63;;;16.59;74.02
62952;BME280;52163;52.212;-1.002;2023-03-20T13:05:59;100373.36;;;16.69;73.47
62952;BME280;52163;52.212;-1.002;2023-03-20T13:11:49;100360.42;;;16.82;73.51
62952;BME280;52163;52.212;-1.002;2023-03-20T13:25:35;100354.48;;;18.16;70.25
62952;BME280;52163;52.212;-1.002;2023-03-20T13:36:32;100343.92;;;18.22;69.18
62952;BME280;52163;52.212;-1.002;2023-03-20T13:39:06;100342.55;;;18.35;68.82
62952;BME280;52163;52.212;-1.002;2023-03-20T13:41:35;100338.28;;;18.44;68.46
62952;BME280;52163;52.212;-1.002;2023-03-20T13:44:03;100342.48;;;18.45;67.64
62952;BME280;52163;52.212;-1.002;2023-03-20T13:46:46;100338.25;;;18.44;67.84
62952;BME280;52163;52.212;-1.002;2023-03-20T13:52:02;100338.63;;;18.57;67.36
62952;BME280;52163;52.212;-1.002;2023-03-20T13:54:45;100338.91;;;18.62;67.18
62952;BME280;52163;52.212;-1.002;2023-03-20T14:05:04;100333.30;;;18.49;67.06
62952;BME280;52163;52.212;-1.002;2023-03-20T14:07:35;100336.82;;;18.37;66.77
62952;BME280;52163;52.212;-1.002;2023-03-20T14:13:08;100335.91;;;17.97;67.42
62952;BME280;52163;52.212;-1.002;2023-03-20T14:15:37;100325.89;;;17.74;67.47
62952;BME280;52163;52.212;-1.002;2023-03-20T14:18:05;100324.48;;;17.64;68.16
62952;BME280;52163;52.212;-1.002;2023-03-20T14:22:58;100330.14;;;17.71;69.04
62952;BME280;52163;52.212;-1.002;2023-03-20T14:25:28;100328.86;;;17.84;69.11
62952;BME280;52163;52.212;-1.002;2023-03-20T14:28:24;100329.45;;;17.95;69.13
62952;BME280;52163;52.212;-1.002;2023-03-20T14:31:11;100328.04;;;17.99;68.70
62952;BME280;52163;52.212;-1.002;2023-03-20T14:33:42;100328.65;;;17.86;68.45
62952;BME280;52163;52.212;-1.002;2023-03-20T14:36:19;100328.23;;;17.72;68.63
62952;BME280;52163;52.212;-1.002;2023-03-20T14:38:51;100329.78;;;17.53;68.92
62952;BME280;52163;52.212;-1.002;2023-03-20T14:46:26;100335.52;;;16.81;69.23
62952;BME280;52163;52.212;-1.002;2023-03-20T14:48:55;100329.20;;;16.60;69.98
62952;BME280;52163;52.212;-1.002;2023-03-20T14:51:43;100325.95;;;16.44;70.78
62952;BME280;52163;52.212;-1.002;2023-03-20T14:56:51;100329.02;;;16.21;71.93
62952;BME280;52163;52.212;-1.002;2023-03-20T14:59:22;100332.10;;;16.14;72.38
62952;BME280;52163;52.212;-1.002;2023-03-20T15:01:59;100329.60;;;16.08;72.94
62952;BME280;52163;52.212;-1.002;2023-03-20T15:04:37;100328.82;;;16.00;73.58
62952;BME280;52163;52.212;-1.002;2023-03-20T15:09:44;100332.12;;;15.69;74.81
62952;BME280;52163;52.212;-1.002;2023-03-20T15:12:13;100329.30;;;15.63;75.71
62952;BME280;52163;52.212;-1.002;2023-03-20T15:14:51;100329.80;;;15.55;76.16
62952;BME280;52163;52.212;-1.002;2023-03-20T15:17:22;100334.06;;;15.42;76.78